Time;durP1;ratioP1;P1;durP2;ratioP2;P2;SDS_P1;SDS_P2;PMS_P1;PMS_P2;Temp;Humidity;BMP_temperature;BMP_pressure;BME280_temperature;BME280_humidity;BME280_pressure;Samples;Min_cycle;Max_cycle;Signal;HPM_P1;HPM_P2
2023/05/20 00:02:10;;;;;;;10.90;5.67;;;13.20;76.10;;;;;;5012597;28;20206;-73
2023/05/20 00:04:35;;;;;;;10.33;5.73;;;13.20;75.90;;;;;;5011756;28;20201;-72
2023/05/20 00:07:01;;;;;;;9.30;5.53;;;13.20;76.10;;;;;;5011728;28;20224;-73
2023/05/20 00:09:28;;;;;;;9.00;5.60;;;13.20;76.10;;;;;;5015283;28;20226;-73
2023/05/20 00:11:54;;;;;;;8.77;5.30;;;13.20;76.10;;;;;;5012064;28;20191;-74
2023/05/20 00:14:20;;;;;;;9.60;5.60;;;13.20;76.10;;;;;;5015750;28;20443;-72
2023/05/20 00:16:45;;;;;;;8.10;5.13;;;13.20;76.10;;;;;;5008664;28;20296;-71
2023/05/20 00:19:11;;;;;;;7.90;5.10;;;13.20;76.10;;;;;;5010453;28;20515;-73
2023/05/20 00:21:37;;;;;;;7.50;5.43;;;13.10;76.20;;;;;;5017141;28;20204;-73
2023/05/20 00:24:02;;;;;;;8.73;5.30;;;13.20;76.40;;;;;;5014866;28;20191;-73
2023/05/20 00:26:28;;;;;;;8.70;5.73;;;13.10;76.20;;;;;;5013841;28;20225;-72
2023/05/20 00:28:53;;;;;;;8.50;5.53;;;13.10;76.40;;;;;;5013984;28;20624;-73
2023/05/20 00:31:20;;;;;;;12.33;6.57;;;13.20;76.40;;;;;;5012135;28;20672;-71
2023/05/20 00:33:46;;;;;;;8.60;5.80;;;13.20;76.40;;;;;;5016284;28;20280;-72
2023/05/20 00:36:11;;;;;;;11.00;5.90;;;13.30;76.40;;;;;;5009574;28;21322;-73
2023/05/20 00:38:37;;;;;;;6.80;5.67;;;13.30;76.10;;;;;;5016425;28;20603;-72
2023/05/20 00:41:02;;;;;;;7.53;4.97;;;13.30;76.10;;;;;;5014566;28;20852;-73
2023/05/20 00:43:28;;;;;;;10.80;5.43;;;13.30;76.10;;;;;;5020670;28;20212;-72
2023/05/20 00:45:54;;;;;;;11.63;5.20;;;13.30;76.20;;;;;;5010237;28;20251;-72
2023/05/20 00:48:20;;;;;;;8.23;5.60;;;13.30;76.20;;;;;;5010426;28;20201;-72
2023/05/20 00:50:47;;;;;;;11.70;6.07;;;13.30;76.20;;;;;;5013137;28;20267;-72
2023/05/20 00:53:14;;;;;;;9.27;5.77;;;13.30;76.40;;;;;;5016230;28;20445;-72
2023/05/20 00:55:40;;;;;;;12.57;6.00;;;13.40;76.40;;;;;;5007423;28;20421;-73
2023/05/20 00:58:06;;;;;;;9.27;6.17;;;13.40;76.50;;;;;;5000343;28;20453;-73
2023/05/20 01:00:31;;;;;;;9.97;5.80;;;13.50;76.40;;;;;;5013359;28;20197;-71
2023/05/20 01:02:57;;;;;;;10.07;5.60;;;13.50;76.20;;;;;;5017729;28;20560;-71
2023/05/20 01:05:23;;;;;;;9.10;6.00;;;13.50;76.10;;;;;;5016794;28;20187;-72
2023/05/20 01:07:50;;;;;;;9.23;6.13;;;13.50;76.20;;;;;;5009022;28;20459;-72
2023/05/20 01:10:15;;;;;;;10.03;5.90;;;13.60;76.20;;;;;;5020071;28;21058;-74
2023/05/20 01:12:41;;;;;;;9.03;5.83;;;13.60;76.10;;;;;;5012487;28;20525;-74
2023/05/20 01:15:09;;;;;;;12.20;5.90;;;13.60;75.90;;;;;;5018622;28;20174;-73
2023/05/20 01:17:38;;;;;;;10.50;5.87;;;13.70;75.90;;;;;;5012139;28;20245;-75
2023/05/20 01:20:06;;;;;;;9.93;6.30;;;13.60;75.90;;;;;;5011213;28;20448;-75
2023/05/20 01:22:32;;;;;;;13.17;6.13;;;13.60;76.10;;;;;;5010944;28;20437;-73
2023/05/20 01:24:57;;;;;;;9.83;6.27;;;13.60;76.40;;;;;;5012087;28;20428;-76
2023/05/20 01:27:23;;;;;;;10.50;6.23;;;13.60;76.40;;;;;;5011576;28;20222;-75
2023/05/20 01:29:50;;;;;;;10.90;5.70;;;13.60;76.50;;;;;;5017483;28;20302;-75
2023/05/20 01:32:20;;;;;;;9.17;6.20;;;13.60;76.50;;;;;;5013477;28;20241;-75
2023/05/20 01:34:48;;;;;;;7.20;5.20;;;13.60;76.40;;;;;;5021363;28;20486;-71
2023/05/20 01:37:15;;;;;;;12.23;6.87;;;13.70;76.40;;;;;;5011206;28;20572;-72
2023/05/20 01:39:41;;;;;;;9.27;5.90;;;13.60;76.40;;;;;;5012062;28;20422;-71
2023/05/20 01:42:09;;;;;;;11.60;6.40;;;13.70;76.70;;;;;;5016012;28;20421;-72
2023/05/20 01:44:35;;;;;;;8.83;5.87;;;13.70;76.70;;;;;;5020374;28;20419;-72
2023/05/20 01:47:00;;;;;;;10.87;7.40;;;13.70;76.40;;;;;;5012766;28;20457;-72
2023/05/20 01:49:26;;;;;;;14.63;7.03;;;13.70;76.50;;;;;;5011033;28;20561;-71
2023/05/20 01:51:52;;;;;;;10.07;6.33;;;13.70;76.50;;;;;;5012096;28;20208;-72
2023/05/20 01:54:18;;;;;;;12.17;7.17;;;13.70;76.70;;;;;;5011504;28;21235;-72
2023/05/20 01:56:45;;;;;;;7.17;5.80;;;13.70;76.50;;;;;;5015353;28;20214;-72
2023/05/20 01:59:10;;;;;;;12.43;6.93;;;13.70;76.50;;;;;;5012247;28;20198;-73
2023/05/20 02:01:36;;;;;;;9.37;6.20;;;13.70;76.50;;;;;;5013459;28;20438;-73
2023/05/20 02:04:01;;;;;;;10.47;6.17;;;13.80;76.50;;;;;;5010774;28;20195;-73
2023/05/20 02:06:27;;;;;;;9.83;6.53;;;13.80;76.40;;;;;;5008970;28;20207;-73
2023/05/20 02:08:52;;;;;;;7.27;5.77;;;13.80;76.40;;;;;;5011756;28;20187;-73
2023/05/20 02:11:18;;;;;;;10.57;6.80;;;13.80;76.50;;;;;;5013865;28;20557;-72
2023/05/20 02:13:44;;;;;;;14.67;8.40;;;13.80;76.40;;;;;;5014409;28;20191;-72
2023/05/20 02:16:10;;;;;;;10.67;7.10;;;13.60;76.70;;;;;;5014392;28;20464;-71
2023/05/20 02:18:35;;;;;;;9.47;7.10;;;13.60;76.70;;;;;;5010511;28;20211;-72
2023/05/20 02:21:04;;;;;;;10.40;7.27;;;13.60;76.80;;;;;;5018277;28;20716;-73
2023/05/20 02:23:30;;;;;;;9.83;6.33;;;13.50;76.80;;;;;;5012729;28;20700;-71
2023/05/20 02:25:56;;;;;;;11.03;6.93;;;13.50;77.00;;;;;;5015608;28;20513;-72
2023/05/20 02:28:22;;;;;;;9.20;7.13;;;13.50;77.00;;;;;;5015016;28;20449;-73
2023/05/20 02:30:49;;;;;;;8.67;6.17;;;13.40;77.10;;;;;;5017201;28;20216;-72
2023/05/20 02:33:15;;;;;;;9.47;6.00;;;13.30;77.70;;;;;;5013088;28;20265;-72
2023/05/20 02:35:41;;;;;;;10.23;6.60;;;13.30;78.10;;;;;;5014692;28;20507;-72
2023/05/20 02:38:07;;;;;;;8.47;6.00;;;13.30;78.30;;;;;;5009593;28;20170;-71
2023/05/20 02:40:33;;;;;;;12.60;6.00;;;13.30;78.30;;;;;;5011455;28;20199;-71
2023/05/20 02:43:00;;;;;;;10.50;6.73;;;13.30;78.40;;;;;;5011141;28;20605;-72
2023/05/20 02:45:26;;;;;;;12.20;7.33;;;13.20;78.40;;;;;;5017435;28;21099;-72
2023/05/20 02:47:51;;;;;;;8.10;6.20;;;13.10;78.70;;;;;;5011332;28;20444;-72
2023/05/20 02:50:17;;;;;;;10.93;7.27;;;13.10;79.30;;;;;;5018631;28;20207;-73
2023/05/20 02:52:44;;;;;;;10.10;6.17;;;13.10;79.20;;;;;;5016736;28;20290;-71
2023/05/20 02:55:10;;;;;;;13.03;6.70;;;13.00;79.30;;;;;;5024682;28;20181;-73
2023/05/20 02:57:39;;;;;;;9.57;6.17;;;13.00;79.60;;;;;;5015453;28;20499;-72
2023/05/20 03:00:06;;;;;;;14.43;7.37;;;13.00;79.70;;;;;;5022625;28;20453;-72
2023/05/20 03:02:33;;;;;;;10.90;6.40;;;13.00;80.00;;;;;;5021781;28;20436;-72
2023/05/20 03:04:59;;;;;;;9.70;6.70;;;12.90;80.00;;;;;;5022569;28;20424;-72
2023/05/20 03:07:24;;;;;;;9.60;6.70;;;12.90;80.30;;;;;;5014590;28;21299;-71
2023/05/20 03:09:50;;;;;;;12.43;6.00;;;12.90;80.60;;;;;;5025261;28;20459;-72
2023/05/20 03:12:16;;;;;;;9.20;7.00;;;12.90;80.80;;;;;;5021648;28;20458;-73
2023/05/20 03:14:41;;;;;;;9.13;6.37;;;12.90;80.60;;;;;;5019713;28;20187;-72
2023/05/20 03:17:08;;;;;;;10.67;7.30;;;12.80;80.80;;;;;;5011404;28;20692;-72
2023/05/20 03:19:34;;;;;;;9.03;6.80;;;12.80;80.80;;;;;;5018838;28;20237;-72
2023/05/20 03:22:00;;;;;;;11.77;6.80;;;12.70;81.20;;;;;;5019913;28;20785;-72
2023/05/20 03:24:26;;;;;;;9.80;6.60;;;12.80;81.20;;;;;;5023675;28;20196;-72
2023/05/20 03:26:52;;;;;;;9.90;6.63;;;12.70;81.10;;;;;;5015479;28;20474;-71
2023/05/20 03:29:17;;;;;;;11.47;6.93;;;12.70;81.20;;;;;;5021517;28;21125;-71
2023/05/20 03:31:43;;;;;;;9.77;6.73;;;12.70;81.50;;;;;;5014539;28;20560;-73
2023/05/20 03:34:08;;;;;;;9.53;7.07;;;12.60;81.70;;;;;;5017863;28;20585;-72
2023/05/20 03:36:34;;;;;;;8.67;6.00;;;12.60;81.90;;;;;;5023060;28;20201;-72
2023/05/20 03:39:00;;;;;;;12.83;7.10;;;12.60;82.10;;;;;;5020358;28;20182;-72
2023/05/20 03:41:26;;;;;;;9.13;6.87;;;12.50;82.20;;;;;;5021532;28;20227;-73
2023/05/20 03:43:52;;;;;;;9.93;6.90;;;12.50;82.20;;;;;;5019650;28;20834;-72
2023/05/20 03:46:17;;;;;;;11.03;6.27;;;12.40;82.40;;;;;;5014493;28;21139;-72
2023/05/20 03:48:43;;;;;;;9.33;6.73;;;12.40;82.80;;;;;;5024618;28;20181;-74
2023/05/20 03:51:08;;;;;;;19.23;6.50;;;12.30;83.10;;;;;;5021630;28;20241;-73
2023/05/20 03:53:34;;;;;;;12.03;7.57;;;12.40;83.10;;;;;;5022367;28;20186;-73
2023/05/20 03:56:00;;;;;;;10.90;6.80;;;12.40;83.10;;;;;;5018364;28;20207;-73
2023/05/20 03:58:28;;;;;;;11.30;6.80;;;12.40;83.30;;;;;;5019287;28;20185;-72
2023/05/20 04:00:53;;;;;;;16.97;6.67;;;12.40;83.40;;;;;;5022991;28;20564;-73
2023/05/20 04:03:19;;;;;;;11.70;7.07;;;12.40;83.60;;;;;;5019779;28;20428;-73
2023/05/20 04:05:45;;;;;;;10.77;7.03;;;12.50;83.40;;;;;;5015921;28;20452;-73
2023/05/20 04:08:12;;;;;;;9.30;6.30;;;12.50;83.30;;;;;;5015143;28;20652;-73
2023/05/20 04:10:41;;;;;;;8.50;6.57;;;12.60;83.30;;;;;;5021025;28;20681;-73
2023/05/20 04:13:07;;;;;;;10.67;6.57;;;12.60;83.10;;;;;;5023229;28;20429;-72
2023/05/20 04:15:35;;;;;;;9.50;6.50;;;12.70;82.80;;;;;;5009276;28;20429;-71
2023/05/20 04:18:01;;;;;;;10.47;6.50;;;12.70;82.80;;;;;;5013468;28;20813;-72
2023/05/20 04:20:27;;;;;;;9.30;6.60;;;12.70;82.70;;;;;;5015876;28;20431;-73
2023/05/20 04:22:53;;;;;;;10.63;6.67;;;12.80;82.80;;;;;;5018404;28;20431;-72
2023/05/20 04:25:19;;;;;;;9.67;6.97;;;12.80;82.40;;;;;;5005474;28;20190;-72
2023/05/20 04:27:44;;;;;;;11.30;6.50;;;12.90;82.20;;;;;;5013024;28;20530;-72
2023/05/20 04:30:11;;;;;;;9.50;6.90;;;12.90;82.10;;;;;;5012566;28;21066;-72
2023/05/20 04:32:37;;;;;;;7.83;6.70;;;13.00;81.90;;;;;;5024525;28;20244;-72
2023/05/20 04:35:07;;;;;;;11.97;6.33;;;13.00;81.90;;;;;;5012473;28;20416;-71
2023/05/20 04:37:33;;;;;;;8.83;6.40;;;13.10;81.80;;;;;;5009353;28;20488;-72
2023/05/20 04:40:03;;;;;;;10.20;6.63;;;13.20;81.50;;;;;;5012595;28;20520;-72
2023/05/20 04:42:29;;;;;;;11.97;7.53;;;13.30;81.40;;;;;;5022044;28;20466;-72
2023/05/20 04:44:54;;;;;;;8.20;6.40;;;13.30;81.20;;;;;;5017047;28;20426;-73
2023/05/20 04:47:20;;;;;;;10.27;7.13;;;13.30;81.10;;;;;;5014701;28;20585;-71
2023/05/20 04:49:45;;;;;;;10.33;6.93;;;13.40;80.90;;;;;;5016163;28;20321;-72
2023/05/20 04:52:11;;;;;;;13.63;7.57;;;13.40;80.80;;;;;;5016449;28;20656;-73
2023/05/20 04:54:37;;;;;;;9.47;6.50;;;13.50;80.60;;;;;;5020290;28;20247;-72
2023/05/20 04:57:03;;;;;;;10.40;6.90;;;13.60;80.30;;;;;;5022120;28;20217;-72
2023/05/20 04:59:28;;;;;;;13.33;6.50;;;13.60;80.30;;;;;;5020651;28;21099;-72
2023/05/20 05:01:54;;;;;;;11.00;7.17;;;13.60;80.20;;;;;;5016965;28;20200;-72
2023/05/20 05:04:20;;;;;;;11.57;6.93;;;13.60;80.20;;;;;;5019996;28;20207;-70
2023/05/20 05:06:47;;;;;;;8.40;6.87;;;13.70;80.20;;;;;;5011627;28;20453;-71
2023/05/20 05:09:13;;;;;;;8.80;6.10;;;13.70;80.20;;;;;;5018584;28;20245;-72
2023/05/20 05:11:38;;;;;;;7.47;6.27;;;13.80;79.90;;;;;;5013883;28;20461;-71
2023/05/20 05:14:04;;;;;;;9.73;7.20;;;13.90;79.60;;;;;;5016286;28;20182;-72
2023/05/20 05:16:29;;;;;;;8.87;6.90;;;14.10;79.30;;;;;;5009510;28;20208;-72
2023/05/20 05:18:55;;;;;;;9.40;7.50;;;14.10;78.70;;;;;;5018601;28;20290;-70
2023/05/20 05:21:21;;;;;;;9.70;7.20;;;13.90;78.10;;;;;;5011966;28;20194;-70
2023/05/20 05:23:46;;;;;;;8.23;6.77;;;13.70;79.20;;;;;;5016258;28;20273;-75
2023/05/20 05:26:12;;;;;;;10.50;7.50;;;13.90;79.20;;;;;;5012150;28;20214;-75
2023/05/20 05:28:37;;;;;;;13.23;7.00;;;13.90;79.20;;;;;;5017708;28;20179;-76
2023/05/20 05:31:04;;;;;;;10.70;7.17;;;14.10;79.00;;;;;;5012785;28;20623;-76
2023/05/20 05:33:30;;;;;;;9.73;7.10;;;14.20;78.60;;;;;;5013286;28;20353;-76
2023/05/20 05:35:57;;;;;;;10.90;7.10;;;14.00;78.30;;;;;;5007884;28;20449;-75
2023/05/20 05:38:23;;;;;;;11.20;8.20;;;13.90;78.40;;;;;;5025325;28;20464;-75
2023/05/20 05:40:49;;;;;;;9.57;7.20;;;13.90;78.90;;;;;;5016514;28;20437;-74
2023/05/20 05:43:15;;;;;;;10.20;7.60;;;13.90;79.20;;;;;;5019425;28;20529;-75
2023/05/20 05:45:42;;;;;;;12.10;7.87;;;14.00;78.90;;;;;;5011560;28;20206;-75
2023/05/20 05:48:07;;;;;;;10.73;7.77;;;14.00;79.20;;;;;;5027788;28;20220;-75
2023/05/20 05:50:33;;;;;;;12.43;8.23;;;14.10;78.90;;;;;;5019392;28;20471;-74
2023/05/20 05:52:58;;;;;;;11.00;7.30;;;14.30;78.60;;;;;;5027254;28;20222;-71
2023/05/20 05:55:24;;;;;;;10.40;7.20;;;14.40;78.10;;;;;;5019154;28;20204;-74
2023/05/20 05:57:50;;;;;;;8.87;7.20;;;14.70;77.80;;;;;;5016187;28;20305;-74
2023/05/20 06:00:16;;;;;;;12.47;8.10;;;14.90;77.10;;;;;;5013085;28;20189;-74
2023/05/20 06:02:42;;;;;;;10.13;7.30;;;14.70;76.10;;;;;;5009763;28;20453;-73
2023/05/20 06:05:08;;;;;;;11.57;7.87;;;14.60;76.80;;;;;;5010854;28;20951;-74
2023/05/20 06:07:33;;;;;;;11.97;7.27;;;14.60;77.40;;;;;;5012280;28;20222;-73
2023/05/20 06:09:59;;;;;;;9.00;6.53;;;14.70;77.10;;;;;;5015860;28;20476;-74
2023/05/20 06:12:24;;;;;;;12.03;6.97;;;15.00;76.70;;;;;;5018128;28;20225;-74
2023/05/20 06:14:50;;;;;;;14.50;7.23;;;15.10;76.10;;;;;;5011561;28;20187;-74
2023/05/20 06:17:16;;;;;;;8.90;7.03;;;15.20;75.90;;;;;;5015419;28;20237;-73
2023/05/20 06:19:41;;;;;;;12.47;7.87;;;15.20;75.50;;;;;;5014976;28;20204;-74
2023/05/20 06:22:07;;;;;;;11.40;7.33;;;15.20;75.50;;;;;;5013556;28;20194;-73
2023/05/20 06:24:33;;;;;;;11.10;6.83;;;14.80;76.20;;;;;;5021504;28;20611;-73
2023/05/20 06:26:59;;;;;;;11.53;7.60;;;14.70;77.10;;;;;;5018980;28;20989;-74
2023/05/20 06:29:24;;;;;;;13.80;8.70;;;14.80;77.40;;;;;;5021632;28;20464;-75
2023/05/20 06:31:50;;;;;;;15.03;8.43;;;14.90;77.10;;;;;;5016201;28;20200;-74
2023/05/20 06:34:15;;;;;;;11.47;8.50;;;14.80;77.40;;;;;;5018178;28;20190;-73
2023/05/20 06:36:41;;;;;;;12.33;7.70;;;14.70;77.70;;;;;;5015623;28;20332;-73
2023/05/20 06:39:11;;;;;;;11.73;8.77;;;14.70;77.80;;;;;;5013128;28;20195;-75
2023/05/20 06:41:37;;;;;;;14.20;9.00;;;14.60;77.80;;;;;;5011181;28;20276;-74
2023/05/20 06:44:03;;;;;;;14.70;8.73;;;14.50;78.70;;;;;;5015258;28;20533;-74
2023/05/20 06:46:29;;;;;;;12.53;8.63;;;14.50;79.00;;;;;;5013805;28;20556;-75
2023/05/20 06:48:54;;;;;;;10.90;7.87;;;14.60;78.90;;;;;;5014035;28;20187;-74
2023/05/20 06:51:20;;;;;;;10.90;7.23;;;14.80;78.60;;;;;;5013711;28;20854;-73
2023/05/20 06:53:46;;;;;;;13.03;8.40;;;15.10;77.80;;;;;;5014460;28;20197;-74
2023/05/20 06:56:11;;;;;;;11.93;8.00;;;15.20;76.80;;;;;;5011086;28;20223;-73
2023/05/20 06:58:37;;;;;;;12.70;7.67;;;15.30;76.70;;;;;;5012854;28;20247;-73
2023/05/20 07:01:02;;;;;;;10.63;7.33;;;15.50;76.20;;;;;;5015948;28;20275;-75
2023/05/20 07:03:28;;;;;;;12.90;8.57;;;15.60;75.50;;;;;;5018385;28;20185;-74
2023/05/20 07:05:53;;;;;;;14.83;7.50;;;15.50;74.60;;;;;;5011442;28;20324;-73
2023/05/20 07:08:19;;;;;;;12.00;7.00;;;15.50;75.50;;;;;;5024778;28;20190;-73
2023/05/20 07:10:45;;;;;;;12.10;7.63;;;15.80;74.90;;;;;;5015479;28;20267;-75
2023/05/20 07:13:11;;;;;;;12.83;8.00;;;16.00;74.00;;;;;;5024523;28;20193;-73
2023/05/20 07:15:37;;;;;;;11.63;8.03;;;15.80;73.90;;;;;;5010980;28;20960;-75
2023/05/20 07:18:03;;;;;;;11.67;7.80;;;15.70;74.50;;;;;;5010573;28;20945;-74
2023/05/20 07:20:28;;;;;;;14.77;7.20;;;15.70;74.30;;;;;;5017271;28;20465;-73
2023/05/20 07:22:54;;;;;;;10.83;7.20;;;15.70;74.80;;;;;;5014340;28;20189;-75
2023/05/20 07:25:19;;;;;;;13.13;8.20;;;15.90;74.00;;;;;;5015488;28;20196;-73
2023/05/20 07:27:45;;;;;;;13.30;9.40;;;16.10;73.30;;;;;;5009634;28;20227;-73
2023/05/20 07:30:11;;;;;;;11.80;8.40;;;16.10;72.90;;;;;;5018258;28;20216;-73
2023/05/20 07:32:36;;;;;;;14.70;7.50;;;16.20;72.90;;;;;;5015334;28;20325;-74
2023/05/20 07:35:02;;;;;;;12.03;8.83;;;16.20;72.70;;;;;;5011095;28;20194;-74
2023/05/20 07:37:27;;;;;;;9.03;7.27;;;16.20;72.70;;;;;;5010246;28;20220;-74
2023/05/20 07:39:53;;;;;;;10.70;7.53;;;16.10;73.20;;;;;;5018569;28;20189;-74
2023/05/20 07:42:19;;;;;;;12.43;7.20;;;16.30;72.70;;;;;;5018532;28;20712;-74
2023/05/20 07:44:44;;;;;;;9.73;7.33;;;16.40;72.30;;;;;;5018432;28;20553;-73
2023/05/20 07:47:10;;;;;;;9.67;6.97;;;16.40;72.30;;;;;;5014208;28;20714;-74
2023/05/20 07:49:35;;;;;;;13.13;7.23;;;16.40;72.30;;;;;;5028928;28;20236;-75
2023/05/20 07:52:01;;;;;;;12.10;7.20;;;16.40;72.40;;;;;;5018018;28;20189;-75
2023/05/20 07:54:26;;;;;;;10.50;6.90;;;16.60;72.30;;;;;;5021070;28;20656;-75
2023/05/20 07:56:52;;;;;;;14.47;8.00;;;16.70;71.70;;;;;;5012162;28;20569;-74
2023/05/20 07:59:18;;;;;;;10.20;7.20;;;16.80;71.60;;;;;;5022253;28;20197;-75
2023/05/20 08:01:43;;;;;;;11.03;6.70;;;16.90;71.30;;;;;;5020223;28;20208;-75
2023/05/20 08:04:09;;;;;;;11.30;8.10;;;17.10;70.70;;;;;;5022292;28;20198;-74
2023/05/20 08:06:34;;;;;;;10.40;7.00;;;17.20;70.20;;;;;;5012178;28;20685;-75
2023/05/20 08:09:01;;;;;;;9.07;7.07;;;17.30;70.10;;;;;;5014712;28;20190;-74
2023/05/20 08:11:27;;;;;;;12.03;7.27;;;17.50;69.70;;;;;;5018629;28;20558;-74
2023/05/20 08:13:53;;;;;;;9.97;7.10;;;17.70;69.10;;;;;;5019058;28;20417;-76
2023/05/20 08:16:20;;;;;;;11.77;7.60;;;17.60;68.60;;;;;;5012936;28;20357;-73
2023/05/20 08:18:46;;;;;;;9.03;7.20;;;17.30;69.50;;;;;;5016321;28;20201;-73
2023/05/20 08:21:12;;;;;;;13.10;8.77;;;17.30;69.90;;;;;;5018865;28;20532;-75
2023/05/20 08:23:38;;;;;;;8.90;6.80;;;17.00;70.20;;;;;;5016437;28;20213;-74
2023/05/20 08:26:04;;;;;;;12.90;7.57;;;17.00;71.10;;;;;;5009919;28;20884;-74
2023/05/20 08:28:30;;;;;;;12.23;6.67;;;17.30;70.50;;;;;;5019342;28;20190;-75
2023/05/20 08:30:56;;;;;;;12.00;8.07;;;17.60;69.80;;;;;;5014957;28;20304;-74
2023/05/20 08:33:22;;;;;;;14.93;9.70;;;17.80;69.10;;;;;;5013216;28;20460;-74
2023/05/20 08:35:48;;;;;;;10.70;7.40;;;17.80;68.80;;;;;;5016663;28;20465;-75
2023/05/20 08:38:14;;;;;;;12.03;8.50;;;17.80;68.80;;;;;;5019963;28;20430;-74
2023/05/20 08:40:39;;;;;;;10.63;7.47;;;17.90;68.80;;;;;;5019957;28;20259;-74
2023/05/20 08:43:05;;;;;;;10.53;8.10;;;18.00;68.60;;;;;;5015000;28;20181;-74
2023/05/20 08:45:32;;;;;;;10.73;7.30;;;18.00;68.20;;;;;;5019280;28;20203;-75
2023/05/20 08:47:59;;;;;;;11.90;7.67;;;18.10;68.20;;;;;;5009754;28;20689;-74
2023/05/20 08:50:25;;;;;;;13.03;7.77;;;18.10;68.00;;;;;;5021788;28;20470;-74
2023/05/20 08:52:52;;;;;;;10.43;7.00;;;18.10;68.00;;;;;;5012866;28;20427;-74
2023/05/20 08:55:41;;;;;;;9.13;6.67;;;18.40;67.90;;;;;;5020202;28;20435;-75
2023/05/20 08:58:08;;;;;;;9.50;7.30;;;18.60;67.60;;;;;;5010318;28;20463;-75
2023/05/20 09:00:34;;;;;;;9.13;6.47;;;18.60;67.50;;;;;;5013367;28;20488;-75
2023/05/20 09:03:00;;;;;;;10.27;6.97;;;18.80;66.40;;;;;;5015978;28;20423;-75
2023/05/20 09:05:26;;;;;;;11.50;7.20;;;19.00;66.00;;;;;;5008370;28;20426;-75
2023/05/20 09:07:52;;;;;;;10.90;7.63;;;19.10;66.10;;;;;;5009096;28;20551;-74
2023/05/20 09:10:18;;;;;;;11.80;8.20;;;19.30;65.80;;;;;;5021746;28;20470;-74
2023/05/20 09:12:44;;;;;;;11.33;7.23;;;19.00;66.60;;;;;;5017334;28;20613;-74
2023/05/20 09:15:10;;;;;;;14.50;7.73;;;18.60;66.70;;;;;;5018993;28;20505;-75
2023/05/20 09:17:37;;;;;;;10.03;7.20;;;18.60;67.30;;;;;;5011104;28;20205;-74
2023/05/20 09:20:07;;;;;;;8.73;6.83;;;18.80;67.50;;;;;;5013570;28;21128;-74
2023/05/20 09:22:33;;;;;;;9.50;6.50;;;19.00;66.90;;;;;;5014796;28;20853;-75
2023/05/20 09:24:59;;;;;;;9.63;7.27;;;19.10;66.60;;;;;;5005213;28;20516;-73
2023/05/20 09:27:24;;;;;;;14.07;8.87;;;18.90;67.00;;;;;;5014666;28;20209;-74
2023/05/20 09:29:50;;;;;;;11.40;8.67;;;18.40;68.00;;;;;;5021285;28;20213;-73
2023/05/20 09:32:19;;;;;;;12.53;8.10;;;18.40;68.50;;;;;;5019168;28;20240;-73
2023/05/20 09:34:46;;;;;;;14.37;9.43;;;18.50;68.20;;;;;;5012205;28;20870;-74
2023/05/20 09:37:16;;;;;;;12.90;8.33;;;18.30;67.70;;;;;;5014892;28;20468;-74
2023/05/20 09:39:56;;;;;;;11.80;8.33;;;18.10;69.10;;;;;;5014344;28;20440;-73
2023/05/20 09:42:27;;;;;;;12.83;8.10;;;18.00;68.90;;;;;;5015932;28;20458;-74
2023/05/20 09:44:55;;;;;;;11.83;7.77;;;18.00;69.40;;;;;;5014090;28;20963;-73
2023/05/20 09:47:23;;;;;;;12.53;8.00;;;18.10;69.40;;;;;;5013466;28;20543;-75
2023/05/20 09:49:51;;;;;;;11.43;7.80;;;18.30;69.20;;;;;;5018338;28;20501;-74
2023/05/20 09:52:17;;;;;;;10.30;7.30;;;18.70;68.80;;;;;;5018375;28;20516;-75
2023/05/20 09:54:43;;;;;;;11.10;7.97;;;18.50;68.00;;;;;;5015308;28;20511;-75
2023/05/20 09:57:09;;;;;;;13.97;8.40;;;18.60;67.70;;;;;;5006990;28;20489;-74
2023/05/20 09:59:37;;;;;;;10.80;7.70;;;18.30;68.50;;;;;;5014067;28;20434;-75
2023/05/20 10:02:05;;;;;;;10.07;6.83;;;18.50;67.90;;;;;;5017503;28;20430;-74
2023/05/20 10:04:33;;;;;;;9.70;6.50;;;18.30;68.30;;;;;;5011689;28;20430;-74
2023/05/20 10:07:25;;;;;;;12.80;8.40;;;18.70;68.30;;;;;;5002572;28;20493;-74
2023/05/20 10:10:08;;;;;;;10.10;6.60;;;18.80;67.50;;;;;;5013113;28;20471;-73
2023/05/20 10:12:42;;;;;;;13.63;7.80;;;19.30;67.50;;;;;;5008595;28;20414;-74
2023/05/20 10:15:42;;;;;;;11.07;7.50;;;20.10;66.30;;;;;;5016215;28;20512;-74
2023/05/20 10:18:44;;;;;;;9.03;6.40;;;20.30;64.70;;;;;;5007672;28;20456;-74
2023/05/20 10:21:17;;;;;;;8.73;6.90;;;20.40;64.50;;;;;;5011038;28;20422;-74
2023/05/20 10:23:43;;;;;;;10.00;7.20;;;20.60;63.90;;;;;;5015061;28;20435;-75
2023/05/20 10:26:09;;;;;;;15.60;8.70;;;20.30;64.40;;;;;;5006419;28;20476;-73
2023/05/20 10:28:36;;;;;;;11.83;6.67;;;19.80;65.60;;;;;;5020768;28;20436;-72
2023/05/20 10:31:21;;;;;;;11.80;8.10;;;20.00;65.30;;;;;;5015879;28;20481;-74
2023/05/20 10:33:47;;;;;;;11.43;7.63;;;19.80;65.30;;;;;;5013924;28;20413;-74
2023/05/20 10:36:30;;;;;;;10.87;7.47;;;20.00;65.60;;;;;;5008685;28;20592;-73
2023/05/20 10:38:58;;;;;;;12.50;7.43;;;20.00;66.00;;;;;;5017974;28;20652;-73
2023/05/20 10:41:28;;;;;;;9.33;6.83;;;20.20;65.30;;;;;;5015121;28;20943;-73
2023/05/20 10:44:02;;;;;;;13.00;7.53;;;20.50;64.70;;;;;;5017587;28;20512;-73
2023/05/20 10:46:28;;;;;;;10.50;6.63;;;20.80;63.40;;;;;;5006955;28;20467;-73
2023/05/20 10:48:54;;;;;;;12.97;8.17;;;21.00;62.80;;;;;;5019927;28;20427;-75
2023/05/20 10:51:20;;;;;;;9.23;6.73;;;20.80;62.60;;;;;;5014331;28;20461;-75
2023/05/20 10:53:46;;;;;;;9.60;7.07;;;20.20;64.10;;;;;;5008270;28;20184;-73
2023/05/20 10:56:20;;;;;;;11.37;7.87;;;20.00;65.30;;;;;;5011754;28;20643;-74
2023/05/20 10:58:46;;;;;;;9.97;6.97;;;20.00;65.10;;;;;;5003737;28;20426;-73
2023/05/20 11:01:12;;;;;;;9.03;6.53;;;20.00;65.30;;;;;;5016760;28;20433;-76
2023/05/20 11:03:40;;;;;;;11.23;7.03;;;20.60;63.90;;;;;;5020940;28;20427;-74
2023/05/20 11:06:11;;;;;;;10.37;6.80;;;21.20;63.20;;;;;;5010834;28;20466;-73
2023/05/20 11:08:37;;;;;;;9.90;6.80;;;21.80;61.90;;;;;;5010152;28;20427;-73
2023/05/20 11:11:03;;;;;;;11.47;7.50;;;22.00;59.70;;;;;;5017504;28;20544;-73
2023/05/20 11:13:30;;;;;;;10.30;6.57;;;21.40;60.90;;;;;;5017805;28;20189;-73
2023/05/20 11:15:56;;;;;;;11.20;7.77;;;21.40;61.60;;;;;;5014888;28;20221;-73
2023/05/20 11:18:21;;;;;;;10.20;7.20;;;20.80;62.30;;;;;;5017186;28;21194;-72
2023/05/20 11:20:47;;;;;;;8.87;6.47;;;20.90;62.60;;;;;;5025278;28;20434;-74
2023/05/20 11:23:14;;;;;;;9.27;6.60;;;20.70;62.60;;;;;;5017492;28;20247;-74
2023/05/20 11:25:39;;;;;;;10.70;6.90;;;20.90;62.60;;;;;;5019912;28;20283;-73
2023/05/20 11:28:14;;;;;;;10.13;6.60;;;21.20;62.00;;;;;;5013348;28;20458;-74
2023/05/20 11:30:42;;;;;;;8.67;5.70;;;21.60;61.00;;;;;;5016784;28;20236;-74
2023/05/20 11:33:11;;;;;;;10.00;5.37;;;22.00;59.30;;;;;;5022776;28;20791;-74
2023/05/20 11:35:47;;;;;;;9.63;6.00;;;22.10;59.20;;;;;;5021819;28;20439;-73
2023/05/20 11:38:13;;;;;;;7.43;5.50;;;22.80;56.50;;;;;;5022167;28;20434;-74
2023/05/20 11:40:44;;;;;;;6.53;5.20;;;22.90;56.20;;;;;;5025202;28;20431;-74
2023/05/20 11:43:11;;;;;;;8.90;6.13;;;23.30;55.70;;;;;;5011921;28;20426;-73
2023/05/20 11:45:42;;;;;;;9.50;6.60;;;22.70;57.60;;;;;;5023328;28;20456;-73
2023/05/20 11:48:08;;;;;;;10.10;6.57;;;22.30;58.50;;;;;;5018919;28;20471;-73
2023/05/20 11:50:39;;;;;;;8.97;6.70;;;22.60;57.60;;;;;;5015511;28;20466;-74
2023/05/20 11:53:10;;;;;;;8.83;6.27;;;21.80;59.10;;;;;;5019935;28;20426;-74
2023/05/20 11:55:47;;;;;;;9.23;6.93;;;22.30;59.10;;;;;;5016817;28;20418;-74
2023/05/20 11:58:20;;;;;;;8.90;6.00;;;21.90;59.20;;;;;;5015561;28;20469;-75
2023/05/20 12:00:46;;;;;;;8.97;6.00;;;21.80;59.50;;;;;;5022531;28;21031;-73
2023/05/20 12:03:12;;;;;;;8.13;5.53;;;22.20;58.70;;;;;;5028444;28;20887;-74
2023/05/20 12:05:38;;;;;;;8.50;6.37;;;22.40;58.20;;;;;;5017995;28;20438;-74
2023/05/20 12:08:05;;;;;;;8.70;5.90;;;22.20;58.90;;;;;;5023190;28;20196;-73
2023/05/20 12:10:31;;;;;;;9.40;6.60;;;21.90;59.30;;;;;;5016939;28;20483;-74
2023/05/20 12:12:57;;;;;;;9.47;6.60;;;21.90;59.10;;;;;;5024959;28;20422;-74
2023/05/20 12:15:23;;;;;;;7.83;5.83;;;21.70;60.00;;;;;;5016124;28;20488;-73
2023/05/20 12:17:51;;;;;;;9.17;6.50;;;22.40;59.50;;;;;;5017999;28;20874;-74
2023/05/20 12:20:17;;;;;;;8.30;6.47;;;22.90;57.70;;;;;;5017596;28;20509;-73
2023/05/20 12:22:44;;;;;;;8.60;6.70;;;23.20;56.20;;;;;;5015788;28;20441;-74
2023/05/20 12:25:12;;;;;;;9.50;6.50;;;22.70;57.70;;;;;;5012984;28;20425;-73
2023/05/20 12:27:38;;;;;;;13.03;7.00;;;23.00;57.00;;;;;;5011075;28;20848;-74
2023/05/20 12:30:04;;;;;;;9.90;7.50;;;22.60;57.30;;;;;;5015767;28;20471;-73
2023/05/20 12:32:30;;;;;;;11.80;6.97;;;22.10;58.80;;;;;;5019549;28;20422;-74
2023/05/20 12:34:55;;;;;;;11.53;6.90;;;22.30;58.70;;;;;;5014810;28;20433;-74
2023/05/20 12:37:21;;;;;;;10.30;7.13;;;22.40;58.20;;;;;;5016018;28;20674;-74
2023/05/20 12:39:47;;;;;;;9.10;6.13;;;22.60;57.60;;;;;;5020361;28;20578;-74